Portada
METAR-TAF:

METAR-TAF

Aeroports :

Culiacán, Mèxic

latitud: 24-49N, longitud: 107-24W, altitud: 39 m

Observació

L'informe es va fer fa 28 minuts, a les 11:49 UTC
Vent calma
Temperatura 23°C
Humitat 100%
Pressió 1009 hPa
Visibilitat: 16.1 km
Cel clar

METAR: MMCL 211149Z 00000KT 10SM SKC 23/23 A2981 RMK SLP092 924 RTS

Hora: 06:17 (12:17 UTC)

Pronòstic

L'informe es va fer fa 7 hores i 24 minuts, a les 04:53 UTC
Pronòstic vàlid del 21 a les 06 UTC al 22 a les 06 UTC
Vent kt del Nord
Visibilitat: 10 km
Cel clar
A partir de les 21 a les 1800 UTC
Vent 10 kt del Oest
Visibilitat: 10 km
Núvols disperses a una alçada de 2500 ft
Evolucionant progressivament
l' 22 a les 03 UTC al 22 a les 05 UTC
Vent 5 kt del Est/Nord-Est
Cel clar

TAF: MMCL 210453Z 2106/2206 00000KT P6SM SKC FM211800 28010KT P6SM SCT025 BECMG 2203/2205 06005KT SKC

Observacions i pronòstics meteorològics de més de 4000 aeroports (METAR i TAF).

Les estacions disponibles són els punts grocs i vermells al mapa.

Posi el ratolí al punt desitjat per veure el nom de l'estació.

Feu clic per veure les observacions i els pronòstics meteorològics.

Per canviar el mapa: feu clic els botons verds amb una creu de color negre per apropar; al botó verd amb un guió per allunyar la imatge; o en les fletxes verdes per a mapes adjacents.


METAR-TAF: